createdAt,value
2023-09-17T15:45:24.756Z,2.67
2023-09-17T15:47:53.347Z,4.63
2023-09-17T15:50:28.607Z,4.82
2023-09-17T15:52:56.948Z,5.30
2023-09-17T15:55:24.940Z,3.90
2023-09-17T15:57:53.265Z,4.45
2023-09-17T16:00:22.638Z,4.47
2023-09-17T16:02:51.210Z,4.15
2023-09-17T16:05:22.636Z,4.40
2023-09-17T16:07:51.430Z,4.13
2023-09-17T16:10:20.076Z,4.00
2023-09-17T16:12:48.513Z,4.05
2023-09-17T16:15:17.038Z,3.75
2023-09-17T16:17:48.218Z,4.03
2023-09-17T16:20:16.883Z,3.40
2023-09-17T16:22:45.843Z,3.63
2023-09-17T16:25:14.302Z,3.63
2023-09-17T16:27:42.861Z,3.50
2023-09-17T16:30:13.548Z,3.25
2023-09-17T16:32:45.852Z,4.05
2023-09-17T16:35:14.504Z,3.50
2023-09-17T16:37:43.944Z,3.70
2023-09-17T16:40:12.089Z,3.80
2023-09-17T16:42:47.704Z,3.80
2023-09-17T16:45:22.059Z,4.03
2023-09-17T16:47:49.957Z,3.80
2023-09-17T16:50:17.863Z,3.30
2023-09-17T16:52:46.484Z,3.30
2023-09-17T16:55:14.758Z,3.92
2023-09-17T16:57:43.023Z,3.33
2023-09-17T17:00:11.399Z,3.80
2023-09-17T17:02:39.478Z,3.17
2023-09-17T17:05:09.252Z,3.15
2023-09-17T17:07:37.395Z,3.17
2023-09-17T17:10:06.127Z,3.22
2023-09-17T17:12:34.038Z,3.53
2023-09-17T17:15:02.185Z,3.60
2023-09-17T17:17:31.237Z,3.30
2023-09-17T17:20:01.608Z,3.33
2023-09-17T17:22:46.868Z,3.28
2023-09-17T17:25:19.852Z,3.63
2023-09-17T17:27:49.448Z,3.22
2023-09-17T17:30:17.339Z,3.22
2023-09-17T17:32:46.200Z,3.38
2023-09-17T17:35:15.166Z,3.00
2023-09-17T17:37:45.251Z,3.08
2023-09-17T17:40:15.839Z,3.30
2023-09-17T17:42:43.778Z,3.03
2023-09-17T17:45:11.940Z,2.90
2023-09-17T17:47:39.826Z,3.17
2023-09-17T17:50:08.520Z,3.70
2023-09-17T17:52:36.551Z,3.70
2023-09-17T17:55:04.584Z,3.30
2023-09-17T17:57:32.909Z,3.30
2023-09-17T18:00:06.269Z,3.20
2023-09-17T18:02:40.069Z,3.15
2023-09-17T18:05:09.516Z,3.30
2023-09-17T18:07:39.513Z,3.08
2023-09-17T18:10:14.911Z,3.10
2023-09-17T18:12:43.365Z,2.90
2023-09-17T18:15:11.628Z,3.53
2023-09-17T18:17:40.176Z,2.75
2023-09-17T18:20:13.265Z,2.90
2023-09-17T18:22:41.358Z,3.90
2023-09-17T18:25:09.679Z,2.80
2023-09-17T18:27:38.935Z,3.00
2023-09-17T18:30:07.554Z,2.95
2023-09-17T18:32:35.653Z,3.22
2023-09-17T18:35:04.182Z,2.90
2023-09-17T18:37:34.387Z,2.63
2023-09-17T18:40:02.580Z,2.70
2023-09-17T18:42:30.471Z,2.78
2023-09-17T18:44:58.858Z,3.60
2023-09-17T18:47:27.017Z,2.50
2023-09-17T18:49:54.992Z,3.00
2023-09-17T18:52:25.611Z,3.10
2023-09-17T18:54:55.462Z,2.72
2023-09-17T18:57:24.128Z,3.00
2023-09-17T18:59:55.430Z,2.90
2023-09-17T19:02:24.148Z,2.80
2023-09-17T19:04:52.263Z,2.85
2023-09-17T19:07:26.048Z,2.80
2023-09-17T19:09:56.093Z,2.88
2023-09-17T19:12:24.183Z,2.60
2023-09-17T19:14:52.172Z,2.97
2023-09-17T19:17:20.092Z,2.97
2023-09-17T19:19:48.091Z,3.28
2023-09-17T19:22:17.564Z,2.83
2023-09-17T19:24:45.504Z,2.97
2023-09-17T19:27:15.942Z,2.88
2023-09-17T19:29:45.381Z,3.20
2023-09-17T19:32:15.175Z,3.05
2023-09-17T19:34:43.282Z,2.90
2023-09-17T19:37:14.659Z,2.90
2023-09-17T19:39:42.692Z,2.95
2023-09-17T19:42:10.865Z,2.70
2023-09-17T19:44:39.207Z,2.83
2023-09-17T19:47:07.774Z,2.80
2023-09-17T19:49:36.368Z,2.72
2023-09-17T19:52:04.695Z,2.90
2023-09-17T19:54:34.924Z,2.58
2023-09-17T19:57:04.356Z,2.90
2023-09-17T19:59:32.363Z,2.42
2023-09-17T20:02:01.094Z,2.72
2023-09-17T20:04:30.165Z,3.00
2023-09-17T20:06:59.599Z,2.70
2023-09-17T20:09:28.068Z,2.67
2023-09-17T20:11:56.538Z,3.15
2023-09-17T20:14:26.227Z,3.00
2023-09-17T20:16:55.048Z,2.65
2023-09-17T20:19:24.003Z,2.90
2023-09-17T20:21:52.935Z,2.70
2023-09-17T20:24:22.679Z,3.00
2023-09-17T20:26:51.184Z,2.90
2023-09-17T20:29:20.416Z,2.65
2023-09-17T20:31:54.251Z,2.60
2023-09-17T20:34:25.432Z,2.72
2023-09-17T20:36:53.282Z,2.85
2023-09-17T20:39:21.583Z,2.72
2023-09-17T20:41:49.731Z,2.95
2023-09-17T20:44:17.749Z,2.70
2023-09-17T20:46:46.988Z,2.90
2023-09-17T20:49:17.408Z,2.90
2023-09-17T20:51:45.773Z,3.03
2023-09-17T20:54:14.401Z,2.42
2023-09-17T20:56:43.514Z,2.78
2023-09-17T20:59:15.210Z,3.03
2023-09-17T21:01:43.342Z,3.00
2023-09-17T21:04:11.433Z,2.90
2023-09-17T21:06:42.516Z,3.10
2023-09-17T21:09:28.176Z,3.17
2023-09-17T21:11:56.595Z,3.10
2023-09-17T21:14:24.723Z,3.15
2023-09-17T21:16:52.731Z,3.10
2023-09-17T21:19:20.843Z,2.88
2023-09-17T21:21:48.768Z,2.92
2023-09-17T21:24:16.664Z,3.00
2023-09-17T21:26:44.782Z,2.88
2023-09-17T21:29:12.869Z,2.80
2023-09-17T21:31:40.878Z,2.70
2023-09-17T21:34:08.790Z,3.03
2023-09-17T21:36:36.671Z,3.15
2023-09-17T21:39:04.634Z,3.17
2023-09-17T21:41:32.567Z,3.30
2023-09-17T21:44:00.795Z,2.83
2023-09-17T21:46:32.673Z,3.17
2023-09-17T21:49:00.647Z,2.90
2023-09-17T21:51:28.703Z,2.90
2023-09-17T21:53:57.001Z,3.03
2023-09-17T21:56:24.978Z,2.72
2023-09-17T21:58:53.098Z,3.10
2023-09-17T22:01:22.470Z,2.65
2023-09-17T22:03:50.671Z,2.83
2023-09-17T22:06:18.658Z,3.03
2023-09-17T22:08:48.621Z,2.80
2023-09-17T22:11:16.697Z,2.80
2023-09-17T22:13:46.658Z,3.10
2023-09-17T22:16:14.821Z,2.95
2023-09-17T22:18:42.996Z,3.10
2023-09-17T22:21:11.669Z,3.00
2023-09-17T22:23:40.024Z,2.88
2023-09-17T22:26:11.486Z,2.95
2023-09-17T22:28:39.611Z,3.35
2023-09-17T22:31:16.253Z,2.97
2023-09-17T22:33:45.914Z,3.08
2023-09-17T22:36:15.148Z,2.90
2023-09-17T22:38:49.185Z,2.90
2023-09-17T22:41:18.135Z,2.90
2023-09-17T22:43:50.578Z,2.75
2023-09-17T22:46:21.264Z,2.80
2023-09-17T22:48:51.733Z,3.00
2023-09-17T22:51:21.813Z,3.05
2023-09-17T22:53:54.510Z,2.90
2023-09-17T22:56:25.206Z,3.00
2023-09-17T22:58:53.371Z,3.03
2023-09-17T23:01:21.771Z,2.83
2023-09-17T23:03:49.654Z,2.88
2023-09-17T23:06:18.542Z,3.13
2023-09-17T23:08:46.794Z,3.15
2023-09-17T23:11:14.792Z,2.92
2023-09-17T23:13:43.046Z,2.85
2023-09-17T23:16:11.293Z,3.00
2023-09-17T23:18:40.632Z,3.22
2023-09-17T23:21:09.098Z,3.00
2023-09-17T23:23:44.163Z,2.85
2023-09-17T23:26:18.409Z,2.90
2023-09-17T23:31:17.408Z,2.97
2023-09-17T23:33:46.323Z,2.80
2023-09-17T23:36:14.182Z,2.88
2023-09-17T23:38:44.539Z,2.70
2023-09-17T23:41:13.502Z,2.90
2023-09-17T23:43:41.512Z,2.70
2023-09-17T23:46:10.027Z,2.92
2023-09-17T23:48:37.937Z,3.20
2023-09-17T23:51:06.012Z,2.83
2023-09-17T23:53:36.198Z,3.00
2023-09-17T23:56:04.356Z,3.05
2023-09-17T23:58:32.254Z,2.88
